createdAt,value
2023-01-15T00:01:46.813Z,0.80
2023-01-15T00:04:15.016Z,2.30
2023-01-15T00:06:43.462Z,0.98
2023-01-15T00:09:13.291Z,0.75
2023-01-15T00:11:41.586Z,0.90
2023-01-15T00:14:12.060Z,0.70
2023-01-15T00:16:40.679Z,1.30
2023-01-15T00:19:10.853Z,0.60
2023-01-15T00:21:39.210Z,0.93
2023-01-15T00:24:25.442Z,0.90
2023-01-15T00:27:11.338Z,0.88
2023-01-15T00:29:39.547Z,1.15
2023-01-15T00:32:08.202Z,1.00
2023-01-15T00:34:36.568Z,0.75
2023-01-15T00:37:04.857Z,0.90
2023-01-15T00:39:34.347Z,0.80
2023-01-15T00:42:02.551Z,0.90
2023-01-15T00:44:32.412Z,0.93
2023-01-15T00:47:00.806Z,1.20
2023-01-15T00:49:29.015Z,1.52
2023-01-15T00:51:57.228Z,1.10
2023-01-15T00:54:25.455Z,1.00
2023-01-15T00:56:53.672Z,1.10
2023-01-15T00:59:21.997Z,1.35
2023-01-15T01:01:50.351Z,0.90
2023-01-15T01:04:18.719Z,0.90
2023-01-15T01:06:46.984Z,0.90
2023-01-15T01:09:15.971Z,1.10
2023-01-15T01:11:44.235Z,0.93
2023-01-15T01:14:12.915Z,0.90
2023-01-15T01:16:42.187Z,0.70
2023-01-15T01:19:11.478Z,1.00
2023-01-15T01:21:40.660Z,0.90
2023-01-15T01:24:10.477Z,0.80
2023-01-15T01:26:39.070Z,0.93
2023-01-15T01:29:07.304Z,0.70
2023-01-15T01:31:35.550Z,0.50
2023-01-15T01:34:03.748Z,0.60
2023-01-15T01:36:35.552Z,0.80
2023-01-15T01:39:04.618Z,0.60
2023-01-15T01:41:32.828Z,0.78
2023-01-15T01:44:10.370Z,0.60
2023-01-15T01:46:38.567Z,0.75
2023-01-15T01:49:08.312Z,0.80
2023-01-15T01:51:38.057Z,0.62
2023-01-15T01:54:06.863Z,1.00
2023-01-15T01:56:36.343Z,0.80
2023-01-15T01:59:05.631Z,1.50
2023-01-15T02:01:33.952Z,0.55
2023-01-15T02:04:05.146Z,0.70
2023-01-15T02:06:33.573Z,0.60
2023-01-15T02:09:01.864Z,0.80
2023-01-15T02:11:31.045Z,1.37
2023-01-15T02:14:03.830Z,0.75
2023-01-15T02:16:39.722Z,0.70
2023-01-15T02:19:18.574Z,0.82
2023-01-15T02:21:52.235Z,0.88
2023-01-15T02:24:34.058Z,0.80
2023-01-15T02:27:09.732Z,0.87
2023-01-15T02:29:39.509Z,1.00
2023-01-15T02:32:09.231Z,0.60
2023-01-15T02:34:39.210Z,0.68
2023-01-15T02:37:09.040Z,1.02
2023-01-15T02:39:38.777Z,0.70
2023-01-15T02:42:08.853Z,1.20
2023-01-15T02:44:39.675Z,0.82
2023-01-15T02:47:08.559Z,1.17
2023-01-15T02:49:37.467Z,0.90
2023-01-15T02:52:09.888Z,1.20
2023-01-15T02:54:45.345Z,0.90
2023-01-15T02:57:14.215Z,1.12
2023-01-15T02:59:43.980Z,0.90
2023-01-15T03:02:13.877Z,0.75
2023-01-15T03:04:43.780Z,0.82
2023-01-15T03:07:16.536Z,1.05
2023-01-15T03:09:45.303Z,1.02
2023-01-15T03:12:15.035Z,0.93
2023-01-15T03:14:44.885Z,0.90
2023-01-15T03:17:14.629Z,2.00
2023-01-15T03:19:44.368Z,1.05
2023-01-15T03:22:17.247Z,1.05
2023-01-15T03:24:49.642Z,0.90
2023-01-15T03:27:17.900Z,1.00
2023-01-15T03:29:47.624Z,2.87
2023-01-15T03:32:16.596Z,1.42
2023-01-15T03:34:49.311Z,1.27
2023-01-15T03:37:18.406Z,1.65
2023-01-15T03:39:46.702Z,1.07
2023-01-15T03:42:16.453Z,1.20
2023-01-15T03:44:51.857Z,1.42
2023-01-15T03:47:21.600Z,1.20
2023-01-15T03:49:54.313Z,1.20
2023-01-15T03:52:26.801Z,2.00
2023-01-15T03:54:56.633Z,1.60
2023-01-15T03:57:26.376Z,1.35
2023-01-15T03:59:56.131Z,1.47
2023-01-15T04:02:25.220Z,1.50
2023-01-15T04:04:54.111Z,1.37
2023-01-15T04:07:22.728Z,1.20
2023-01-15T04:09:51.619Z,1.30
2023-01-15T04:12:20.151Z,1.10
2023-01-15T04:14:48.697Z,1.20
2023-01-15T04:17:17.251Z,1.17
2023-01-15T04:19:45.783Z,1.95
2023-01-15T04:22:15.317Z,1.30
2023-01-15T04:24:44.219Z,1.30
2023-01-15T04:27:12.758Z,1.42
2023-01-15T04:29:41.413Z,1.20
2023-01-15T04:32:11.204Z,0.88
2023-01-15T04:34:39.753Z,1.17
2023-01-15T04:37:08.279Z,1.10
2023-01-15T04:39:36.969Z,1.27
2023-01-15T04:42:23.026Z,1.25
2023-01-15T04:44:51.568Z,1.22
2023-01-15T04:47:20.189Z,1.82
2023-01-15T04:49:48.856Z,1.12
2023-01-15T04:52:17.535Z,1.20
2023-01-15T04:54:46.237Z,1.00
2023-01-15T04:57:14.753Z,1.32
2023-01-15T04:59:43.507Z,1.22
2023-01-15T05:02:14.086Z,1.42
2023-01-15T05:04:42.411Z,1.50
2023-01-15T05:07:11.526Z,1.12
2023-01-15T05:09:40.160Z,1.50
2023-01-15T05:12:09.425Z,1.50
2023-01-15T05:14:37.976Z,1.52
2023-01-15T05:17:06.605Z,1.87
2023-01-15T05:19:35.146Z,1.40
2023-01-15T05:22:03.780Z,1.17
2023-01-15T05:24:32.290Z,1.57
2023-01-15T05:27:01.046Z,1.70
2023-01-15T05:29:29.902Z,1.20
2023-01-15T05:31:58.799Z,2.15
2023-01-15T05:34:27.409Z,1.32
2023-01-15T05:36:55.942Z,1.32
2023-01-15T05:39:24.548Z,1.50
2023-01-15T05:41:53.969Z,1.45
2023-01-15T05:44:25.556Z,2.20
2023-01-15T05:46:57.029Z,1.17
2023-01-15T05:49:27.398Z,2.17
2023-01-15T05:51:56.412Z,2.65
2023-01-15T05:54:27.549Z,1.22
2023-01-15T05:56:56.453Z,1.65
2023-01-15T05:59:27.432Z,1.65
2023-01-15T06:01:56.975Z,1.30
2023-01-15T06:04:25.890Z,1.40
2023-01-15T06:06:55.799Z,1.05
2023-01-15T06:09:24.988Z,1.20
2023-01-15T06:11:54.137Z,1.52
2023-01-15T06:14:24.443Z,1.45
2023-01-15T06:16:53.022Z,1.30
2023-01-15T06:19:21.598Z,1.40
2023-01-15T06:21:50.126Z,1.30
2023-01-15T06:24:20.014Z,1.20
2023-01-15T06:26:49.844Z,1.10
2023-01-15T06:29:20.322Z,1.52
2023-01-15T06:31:49.521Z,1.45
2023-01-15T06:34:18.235Z,1.75
2023-01-15T06:36:46.897Z,1.45
2023-01-15T06:39:16.293Z,1.15
2023-01-15T06:42:02.400Z,1.35
2023-01-15T06:44:48.488Z,1.10
2023-01-15T06:47:23.282Z,1.32
2023-01-15T06:49:57.875Z,1.40
2023-01-15T06:52:28.315Z,1.45
2023-01-15T06:54:57.434Z,1.22
2023-01-15T06:57:26.016Z,1.50
2023-01-15T06:59:54.272Z,1.60
2023-01-15T07:02:22.650Z,1.32
2023-01-15T07:04:51.894Z,1.27
2023-01-15T07:07:20.575Z,1.50
2023-01-15T07:09:48.941Z,1.17
2023-01-15T07:12:17.395Z,1.40
2023-01-15T07:14:45.820Z,1.47
2023-01-15T07:17:14.415Z,1.50
2023-01-15T07:19:42.703Z,1.15
2023-01-15T07:22:11.368Z,1.30
2023-01-15T07:24:39.624Z,1.40
2023-01-15T07:27:07.878Z,1.30
2023-01-15T07:29:36.139Z,1.10
2023-01-15T07:32:04.578Z,2.15
2023-01-15T07:34:32.839Z,1.42
2023-01-15T07:37:01.122Z,1.22
2023-01-15T07:39:31.017Z,1.25
2023-01-15T07:42:16.714Z,1.15
2023-01-15T07:45:02.615Z,1.30
2023-01-15T07:47:48.907Z,2.12
2023-01-15T07:50:18.650Z,1.40
2023-01-15T07:52:47.270Z,1.70
2023-01-15T07:55:16.000Z,1.60
2023-01-15T07:57:44.461Z,1.35
2023-01-15T08:00:14.524Z,1.65
2023-01-15T08:02:44.085Z,1.42
2023-01-15T08:05:13.020Z,1.15
2023-01-15T08:07:42.765Z,1.50
2023-01-15T08:10:13.018Z,1.25
2023-01-15T08:12:59.628Z,1.30
2023-01-15T08:15:30.172Z,1.20
2023-01-15T08:17:59.119Z,0.65
2023-01-15T08:20:28.209Z,0.82
2023-01-15T08:22:56.948Z,0.80
2023-01-15T08:25:26.788Z,0.90
2023-01-15T08:27:56.502Z,0.70
2023-01-15T08:30:26.428Z,0.70
2023-01-15T08:32:58.341Z,1.00
2023-01-15T08:35:26.912Z,0.80
2023-01-15T08:37:55.521Z,0.80
2023-01-15T08:40:24.146Z,1.32
2023-01-15T08:42:52.693Z,1.10
2023-01-15T08:45:21.275Z,1.17
2023-01-15T08:47:50.028Z,0.65
2023-01-15T08:50:18.762Z,0.80
2023-01-15T08:52:47.769Z,0.93
2023-01-15T08:55:16.629Z,0.88
2023-01-15T08:57:45.548Z,1.22
2023-01-15T09:00:16.195Z,0.90
2023-01-15T09:02:44.962Z,1.25
2023-01-15T09:05:13.671Z,1.10
2023-01-15T09:07:42.276Z,1.35
2023-01-15T09:10:11.372Z,1.00
2023-01-15T09:12:39.949Z,1.25
2023-01-15T09:15:09.037Z,1.00
2023-01-15T09:17:39.316Z,1.07
2023-01-15T09:20:10.855Z,1.40
2023-01-15T09:22:40.054Z,1.32
2023-01-15T09:25:09.301Z,1.50
2023-01-15T09:27:37.868Z,1.40
2023-01-15T09:30:07.062Z,1.10
2023-01-15T09:32:35.679Z,1.32
2023-01-15T09:35:03.931Z,1.55
2023-01-15T09:37:32.225Z,1.25
2023-01-15T09:40:02.111Z,1.62
2023-01-15T09:42:42.390Z,1.60
2023-01-15T09:45:20.941Z,1.17
2023-01-15T09:48:05.895Z,1.85
2023-01-15T09:50:44.011Z,1.27
2023-01-15T09:53:25.810Z,1.62
2023-01-15T09:55:54.799Z,1.25
2023-01-15T09:58:24.535Z,1.42
2023-01-15T10:00:53.184Z,1.37
2023-01-15T10:03:22.962Z,1.55
2023-01-15T10:05:53.673Z,1.80
2023-01-15T10:08:35.192Z,1.40
2023-01-15T10:11:05.240Z,1.45
2023-01-15T10:13:37.288Z,1.98
2023-01-15T10:16:06.141Z,2.00
2023-01-15T10:18:34.580Z,2.92
2023-01-15T10:21:20.781Z,1.57
2023-01-15T10:23:50.555Z,1.80
2023-01-15T10:26:20.298Z,1.55
2023-01-15T10:29:03.674Z,1.32
2023-01-15T10:31:36.382Z,1.40
2023-01-15T10:36:39.669Z,2.22
2023-01-15T10:39:12.234Z,1.77
2023-01-15T10:41:42.076Z,1.35
2023-01-15T10:44:11.816Z,1.80
2023-01-15T10:46:40.538Z,1.50
2023-01-15T10:49:16.245Z,2.00
2023-01-15T10:51:46.057Z,1.67
2023-01-15T10:54:18.971Z,2.80
2023-01-15T10:56:59.377Z,1.98
2023-01-15T10:59:37.966Z,1.77
2023-01-15T11:02:07.868Z,1.40
2023-01-15T11:04:36.732Z,1.47
2023-01-15T11:07:05.267Z,1.55
2023-01-15T11:09:35.357Z,1.50
2023-01-15T11:12:06.744Z,1.47
2023-01-15T11:14:54.007Z,1.95
2023-01-15T11:17:42.395Z,1.27
2023-01-15T11:20:14.872Z,1.17
2023-01-15T11:22:44.877Z,1.52
2023-01-15T11:25:13.728Z,1.20
2023-01-15T11:27:42.093Z,1.30
2023-01-15T11:30:11.895Z,1.42
2023-01-15T11:32:40.126Z,1.30
2023-01-15T11:35:19.033Z,1.12
2023-01-15T11:37:47.325Z,1.47
2023-01-15T11:40:20.357Z,1.00
2023-01-15T11:43:07.038Z,1.55
2023-01-15T11:45:53.269Z,1.40
2023-01-15T11:48:40.534Z,1.10
2023-01-15T11:51:10.084Z,1.40
2023-01-15T11:53:42.820Z,1.80
2023-01-15T11:56:12.539Z,0.98
2023-01-15T11:58:45.187Z,1.20
2023-01-15T12:03:41.574Z,1.47
2023-01-15T12:06:11.872Z,1.82
2023-01-15T12:08:51.399Z,0.98
2023-01-15T12:11:37.944Z,0.80
2023-01-15T12:14:24.192Z,1.07
2023-01-15T12:16:53.981Z,1.12
2023-01-15T12:19:41.613Z,1.42
2023-01-15T12:22:26.363Z,1.20
2023-01-15T12:24:58.820Z,1.57
2023-01-15T12:27:33.034Z,1.15
2023-01-15T12:30:02.759Z,1.52
2023-01-15T12:32:32.483Z,1.10
2023-01-15T12:35:05.283Z,0.90
2023-01-15T12:37:41.054Z,1.67
2023-01-15T12:40:10.847Z,1.30
2023-01-15T12:42:56.887Z,0.70
2023-01-15T12:45:29.705Z,1.05
2023-01-15T12:48:17.263Z,1.22
2023-01-15T12:50:47.206Z,1.05
2023-01-15T12:53:19.973Z,1.32
2023-01-15T12:55:52.286Z,1.02
2023-01-15T12:58:22.042Z,1.20
2023-01-15T13:00:50.799Z,1.57
2023-01-15T13:03:26.192Z,1.22
2023-01-15T13:05:55.929Z,1.40
2023-01-15T13:08:25.766Z,1.60
2023-01-15T13:10:53.937Z,1.75
2023-01-15T13:13:25.658Z,1.10
2023-01-15T13:16:09.365Z,1.42
2023-01-15T13:18:55.807Z,1.95
2023-01-15T13:21:27.406Z,0.90
2023-01-15T13:24:04.840Z,1.20
2023-01-15T13:26:37.957Z,1.10
2023-01-15T13:29:07.724Z,1.00
2023-01-15T13:31:43.192Z,1.35
2023-01-15T13:34:12.996Z,1.20
2023-01-15T13:36:45.955Z,1.30
2023-01-15T13:39:15.776Z,1.00
2023-01-15T13:42:01.805Z,1.30
2023-01-15T13:44:31.615Z,1.67
2023-01-15T13:47:04.296Z,1.05
2023-01-15T13:52:01.979Z,1.27
2023-01-15T13:54:31.199Z,1.57
2023-01-15T13:57:10.260Z,1.17
2023-01-15T13:59:45.388Z,1.82
2023-01-15T14:02:29.998Z,1.30
2023-01-15T14:04:58.590Z,1.30
2023-01-15T14:07:34.361Z,1.15
2023-01-15T14:10:10.259Z,1.20
2023-01-15T14:12:40.014Z,1.32
2023-01-15T14:15:15.702Z,1.00
2023-01-15T14:18:00.517Z,1.30
2023-01-15T14:20:39.454Z,1.22
2023-01-15T14:23:15.153Z,1.00
2023-01-15T14:25:51.021Z,1.00
2023-01-15T14:28:29.570Z,1.30
2023-01-15T14:31:19.119Z,1.20
2023-01-15T14:34:12.123Z,0.98
2023-01-15T14:39:13.309Z,1.12
2023-01-15T14:41:59.658Z,1.98
2023-01-15T14:44:30.508Z,1.67
2023-01-15T14:47:02.180Z,1.22
2023-01-15T14:49:36.803Z,0.88
2023-01-15T14:52:05.426Z,1.40
2023-01-15T14:54:34.638Z,1.20
2023-01-15T14:57:07.555Z,1.02
2023-01-15T14:59:39.176Z,0.98
2023-01-15T15:02:09.138Z,1.40
2023-01-15T15:04:48.957Z,1.75
2023-01-15T15:07:29.357Z,1.10
2023-01-15T15:10:02.057Z,1.00
2023-01-15T15:12:48.351Z,1.40
2023-01-15T15:15:23.163Z,1.50
2023-01-15T15:18:00.537Z,1.82
2023-01-15T15:20:32.351Z,1.15
2023-01-15T15:23:06.819Z,1.10
2023-01-15T15:25:39.619Z,1.10
2023-01-15T15:28:12.875Z,1.00
2023-01-15T15:30:44.878Z,0.72
2023-01-15T15:33:22.560Z,1.30
2023-01-15T15:35:56.443Z,1.55
2023-01-15T15:38:26.803Z,1.20
2023-01-15T15:40:58.895Z,1.55
2023-01-15T15:44:00.461Z,1.50
2023-01-15T15:46:49.476Z,1.57
2023-01-15T15:49:20.028Z,1.30
2023-01-15T15:51:51.964Z,1.10
2023-01-15T15:54:30.638Z,1.65
2023-01-15T15:57:07.251Z,1.52
2023-01-15T15:59:41.188Z,1.10
2023-01-15T16:02:31.378Z,1.40
2023-01-15T16:05:02.426Z,1.47
2023-01-15T16:07:37.373Z,1.27
2023-01-15T16:10:17.576Z,1.70
2023-01-15T16:12:52.405Z,1.75
2023-01-15T16:15:24.013Z,1.57
2023-01-15T16:17:52.718Z,1.35
2023-01-15T16:20:22.115Z,1.67
2023-01-15T16:22:53.761Z,1.30
2023-01-15T16:25:28.344Z,1.57
2023-01-15T16:27:57.439Z,1.65
2023-01-15T16:30:26.276Z,1.35
2023-01-15T16:32:57.811Z,1.17
2023-01-15T16:35:26.974Z,1.52
2023-01-15T16:37:58.251Z,1.15
2023-01-15T16:40:32.834Z,1.60
2023-01-15T16:43:16.045Z,1.62
2023-01-15T16:46:05.617Z,1.50
2023-01-15T16:48:39.629Z,2.22
2023-01-15T16:51:27.673Z,1.50
2023-01-15T16:53:56.687Z,1.80
2023-01-15T16:56:28.252Z,1.77
2023-01-15T16:58:56.807Z,1.60
2023-01-15T17:01:43.628Z,1.50
2023-01-15T17:04:30.150Z,1.65
2023-01-15T17:07:07.697Z,1.07
2023-01-15T17:09:38.089Z,1.47
2023-01-15T17:12:29.260Z,1.20
2023-01-15T17:15:00.884Z,1.12
2023-01-15T17:17:30.116Z,1.45
2023-01-15T17:19:58.809Z,1.25
2023-01-15T17:22:30.898Z,1.37
2023-01-15T17:25:01.674Z,1.17
2023-01-15T17:27:31.385Z,1.30
2023-01-15T17:29:59.963Z,1.27
2023-01-15T17:32:36.199Z,1.47
2023-01-15T17:35:05.207Z,1.32
2023-01-15T17:37:33.862Z,1.07
2023-01-15T17:40:03.863Z,1.50
2023-01-15T17:42:32.513Z,1.35
2023-01-15T17:45:01.140Z,1.90
2023-01-15T17:47:29.687Z,1.75
2023-01-15T17:49:58.405Z,2.40
2023-01-15T17:52:26.969Z,2.20
2023-01-15T17:55:13.543Z,2.62
2023-01-15T17:57:59.598Z,2.55
2023-01-15T18:00:48.485Z,1.80
2023-01-15T18:03:37.327Z,1.55
2023-01-15T18:06:07.192Z,2.20
2023-01-15T18:08:36.128Z,2.05
2023-01-15T18:11:05.967Z,1.75
2023-01-15T18:13:34.585Z,1.70
2023-01-15T18:16:05.627Z,1.87
2023-01-15T18:18:34.020Z,1.75
2023-01-15T18:21:03.255Z,1.90
2023-01-15T18:23:34.389Z,2.70
2023-01-15T18:26:09.063Z,1.98
2023-01-15T18:28:38.917Z,2.30
2023-01-15T18:31:08.383Z,1.72
2023-01-15T18:33:36.949Z,1.80
2023-01-15T18:36:11.511Z,1.32
2023-01-15T18:38:43.555Z,1.70
2023-01-15T18:41:32.810Z,1.57
2023-01-15T18:44:23.645Z,2.12
2023-01-15T18:46:54.993Z,2.30
2023-01-15T18:49:23.598Z,2.20
2023-01-15T18:51:53.923Z,1.90
2023-01-15T18:54:22.457Z,2.00
2023-01-15T18:56:51.025Z,2.35
2023-01-15T18:59:20.880Z,1.87
2023-01-15T19:01:49.975Z,1.87
2023-01-15T19:04:20.399Z,4.12
2023-01-15T19:06:49.238Z,3.65
2023-01-15T19:09:20.303Z,2.87
2023-01-15T19:11:49.149Z,2.20
2023-01-15T19:14:35.498Z,1.72
2023-01-15T19:17:21.830Z,1.70
2023-01-15T19:19:50.507Z,2.27
2023-01-15T19:22:37.220Z,1.75
2023-01-15T19:25:06.416Z,2.50
2023-01-15T19:27:35.227Z,2.27
2023-01-15T19:30:05.601Z,1.77
2023-01-15T19:32:34.747Z,1.47
2023-01-15T19:35:03.531Z,2.45
2023-01-15T19:37:34.918Z,1.62
2023-01-15T19:40:05.214Z,1.77
2023-01-15T19:42:51.969Z,1.87
2023-01-15T19:45:38.740Z,2.22
2023-01-15T19:48:27.718Z,1.50
2023-01-15T19:50:56.371Z,1.60
2023-01-15T19:53:25.221Z,1.72
2023-01-15T19:55:54.133Z,1.72
2023-01-15T19:58:22.948Z,1.12
2023-01-15T20:00:52.976Z,1.22
2023-01-15T20:03:22.024Z,1.80
2023-01-15T20:05:50.643Z,1.50
2023-01-15T20:08:19.509Z,1.32
2023-01-15T20:10:50.092Z,1.60
2023-01-15T20:13:40.137Z,1.70
2023-01-15T20:16:14.728Z,1.70
2023-01-15T20:18:43.470Z,1.60
2023-01-15T20:21:15.638Z,1.72
2023-01-15T20:23:45.486Z,0.90
2023-01-15T20:26:15.897Z,1.67
2023-01-15T20:28:46.450Z,1.70
2023-01-15T20:31:19.201Z,1.60
2023-01-15T20:33:48.185Z,1.55
2023-01-15T20:36:16.958Z,1.52
2023-01-15T20:38:45.769Z,1.40
2023-01-15T20:41:32.012Z,1.62
2023-01-15T20:44:18.342Z,2.17
2023-01-15T20:46:47.155Z,2.00
2023-01-15T20:49:29.153Z,2.10
2023-01-15T20:51:58.192Z,2.57
2023-01-15T20:54:27.773Z,2.30
2023-01-15T20:56:56.314Z,2.00
2023-01-15T20:59:25.051Z,2.10
2023-01-15T21:01:55.157Z,2.20
2023-01-15T21:04:24.016Z,1.90
2023-01-15T21:06:54.304Z,2.35
2023-01-15T21:09:23.025Z,2.42
2023-01-15T21:11:51.707Z,1.87
2023-01-15T21:14:20.529Z,2.67
2023-01-15T21:16:51.051Z,2.20
2023-01-15T21:19:21.076Z,1.85
2023-01-15T21:21:49.769Z,1.52
2023-01-15T21:24:18.408Z,1.77
2023-01-15T21:26:48.645Z,2.52
2023-01-15T21:29:17.394Z,1.75
2023-01-15T21:31:46.269Z,4.00
2023-01-15T21:34:15.023Z,2.72
2023-01-15T21:36:43.742Z,3.02
2023-01-15T21:39:14.704Z,2.30
2023-01-15T21:42:01.497Z,2.67
2023-01-15T21:44:37.830Z,3.25
2023-01-15T21:47:12.754Z,2.40
2023-01-15T21:49:42.887Z,1.90
2023-01-15T21:52:17.178Z,1.65
2023-01-15T21:54:46.417Z,1.80
2023-01-15T21:57:15.557Z,1.60
2023-01-15T21:59:44.157Z,1.40
2023-01-15T22:02:16.542Z,1.70
2023-01-15T22:07:13.480Z,2.58
2023-01-15T22:09:42.059Z,1.98
2023-01-15T22:12:10.761Z,1.77
2023-01-15T22:14:39.717Z,2.00
2023-01-15T22:17:09.108Z,2.45
2023-01-15T22:19:37.676Z,2.87
2023-01-15T22:22:08.659Z,1.45
2023-01-15T22:24:39.259Z,1.90
2023-01-15T22:27:10.535Z,1.50
2023-01-15T22:29:41.234Z,0.95
2023-01-15T22:32:12.080Z,1.60
2023-01-15T22:34:40.878Z,1.30
2023-01-15T22:37:10.129Z,1.42
2023-01-15T22:39:38.949Z,1.40
2023-01-15T22:42:25.226Z,1.20
2023-01-15T22:44:54.184Z,1.00
2023-01-15T22:47:23.193Z,1.47
2023-01-15T22:49:52.960Z,1.20
2023-01-15T22:52:23.305Z,1.55
2023-01-15T22:54:52.022Z,1.30
2023-01-15T22:57:21.657Z,1.50
2023-01-15T22:59:53.213Z,1.45
2023-01-15T23:02:23.461Z,1.47
2023-01-15T23:04:52.050Z,1.47
2023-01-15T23:07:22.620Z,1.30
2023-01-15T23:09:51.225Z,1.95
2023-01-15T23:12:19.792Z,1.45
2023-01-15T23:14:50.830Z,1.72
2023-01-15T23:17:19.354Z,1.10
2023-01-15T23:19:47.932Z,1.05
2023-01-15T23:22:16.632Z,1.27
2023-01-15T23:24:45.342Z,1.10
2023-01-15T23:27:13.960Z,1.50
2023-01-15T23:29:42.513Z,1.25
2023-01-15T23:32:11.023Z,1.27
2023-01-15T23:34:39.615Z,0.90
2023-01-15T23:37:08.145Z,1.20
2023-01-15T23:39:36.682Z,1.20
2023-01-15T23:42:22.741Z,1.30
2023-01-15T23:45:09.049Z,1.17
2023-01-15T23:47:37.599Z,1.35
2023-01-15T23:50:06.377Z,0.70
2023-01-15T23:52:34.911Z,2.08
2023-01-15T23:55:03.439Z,1.35
2023-01-15T23:57:32.017Z,1.30
